sensor_id;sensor_type;location;lat;lon;timestamp;temperature;humidity
57444;DHT22;43289;52.962;6.196;2023-04-07T10:51:43;8.30;99.90
57444;DHT22;43289;52.962;6.196;2023-04-07T10:59:29;10.90;99.90
57444;DHT22;43289;52.962;6.196;2023-04-07T11:09:34;10.90;99.90
57444;DHT22;43289;52.962;6.196;2023-04-07T11:12:00;11.10;99.90
57444;DHT22;43289;52.962;6.196;2023-04-07T11:14:28;11.10;99.90
57444;DHT22;43289;52.962;6.196;2023-04-07T11:16:57;11.20;99.90
57444;DHT22;43289;52.962;6.196;2023-04-07T11:19:22;11.30;99.90
57444;DHT22;43289;52.962;6.196;2023-04-07T11:21:49;11.40;99.90
57444;DHT22;43289;52.962;6.196;2023-04-07T11:24:36;11.30;99.90
57444;DHT22;43289;52.962;6.196;2023-04-07T11:27:05;11.10;99.90
57444;DHT22;43289;52.962;6.196;2023-04-07T11:29:32;11.20;99.90
57444;DHT22;43289;52.962;6.196;2023-04-07T11:31:59;11.30;99.90
57444;DHT22;43289;52.962;6.196;2023-04-07T11:34:29;11.20;99.90
57444;DHT22;43289;52.962;6.196;2023-04-07T11:36:55;11.30;99.90
57444;DHT22;43289;52.962;6.196;2023-04-07T11:39:25;11.30;99.90
57444;DHT22;43289;52.962;6.196;2023-04-07T11:41:56;11.40;99.90
57444;DHT22;43289;52.962;6.196;2023-04-07T11:44:22;11.40;99.90
57444;DHT22;43289;52.962;6.196;2023-04-07T11:46:59;11.30;99.90
57444;DHT22;43289;52.962;6.196;2023-04-07T11:49:27;11.20;99.90
57444;DHT22;43289;52.962;6.196;2023-04-07T11:52:01;11.10;99.90
57444;DHT22;43289;52.962;6.196;2023-04-07T11:54:41;10.90;99.90
57444;DHT22;43289;52.962;6.196;2023-04-07T11:57:07;10.90;99.90
57444;DHT22;43289;52.962;6.196;2023-04-07T11:59:34;10.90;99.90
57444;DHT22;43289;52.962;6.196;2023-04-07T12:02:00;10.90;99.90
57444;DHT22;43289;52.962;6.196;2023-04-07T12:04:26;10.90;99.90
57444;DHT22;43289;52.962;6.196;2023-04-07T12:06:52;11.00;99.90
57444;DHT22;43289;52.962;6.196;2023-04-07T12:09:29;11.00;99.90
57444;DHT22;43289;52.962;6.196;2023-04-07T12:11:55;11.10;99.90
57444;DHT22;43289;52.962;6.196;2023-04-07T12:14:22;11.00;99.90
57444;DHT22;43289;52.962;6.196;2023-04-07T12:16:48;11.10;99.90
57444;DHT22;43289;52.962;6.196;2023-04-07T12:19:17;11.20;99.90
57444;DHT22;43289;52.962;6.196;2023-04-07T12:21:42;11.10;99.90
57444;DHT22;43289;52.962;6.196;2023-04-07T12:24:16;11.10;99.90
57444;DHT22;43289;52.962;6.196;2023-04-07T12:26:42;11.10;99.90
57444;DHT22;43289;52.962;6.196;2023-04-07T12:29:07;11.00;99.90
57444;DHT22;43289;52.962;6.196;2023-04-07T12:31:35;11.00;99.90
57444;DHT22;43289;52.962;6.196;2023-04-07T12:34:01;10.80;99.90
57444;DHT22;43289;52.962;6.196;2023-04-07T12:36:27;10.70;99.90
57444;DHT22;43289;52.962;6.196;2023-04-07T12:38:58;10.70;99.90
57444;DHT22;43289;52.962;6.196;2023-04-07T12:41:24;10.60;99.90
57444;DHT22;43289;52.962;6.196;2023-04-07T12:43:50;10.60;99.90
57444;DHT22;43289;52.962;6.196;2023-04-07T12:46:15;10.50;99.90
57444;DHT22;43289;52.962;6.196;2023-04-07T12:48:41;10.50;99.90
57444;DHT22;43289;52.962;6.196;2023-04-07T12:51:07;10.60;99.90
57444;DHT22;43289;52.962;6.196;2023-04-07T12:53:32;10.60;99.90
57444;DHT22;43289;52.962;6.196;2023-04-07T12:55:58;10.60;99.90
57444;DHT22;43289;52.962;6.196;2023-04-07T12:58:24;10.60;99.90
57444;DHT22;43289;52.962;6.196;2023-04-07T13:00:50;10.50;99.90
57444;DHT22;43289;52.962;6.196;2023-04-07T13:03:16;10.50;99.90
57444;DHT22;43289;52.962;6.196;2023-04-07T13:05:42;10.50;99.90
57444;DHT22;43289;52.962;6.196;2023-04-07T13:08:07;10.50;99.90
57444;DHT22;43289;52.962;6.196;2023-04-07T13:10:33;10.50;99.90
57444;DHT22;43289;52.962;6.196;2023-04-07T13:12:59;10.50;99.90
57444;DHT22;43289;52.962;6.196;2023-04-07T13:15:24;10.60;99.90
57444;DHT22;43289;52.962;6.196;2023-04-07T13:17:50;10.60;99.90
57444;DHT22;43289;52.962;6.196;2023-04-07T13:20:16;10.70;99.90
57444;DHT22;43289;52.962;6.196;2023-04-07T13:22:44;10.80;99.90
57444;DHT22;43289;52.962;6.196;2023-04-07T13:25:10;10.80;99.90
57444;DHT22;43289;52.962;6.196;2023-04-07T13:27:36;11.00;99.90
57444;DHT22;43289;52.962;6.196;2023-04-07T13:30:01;11.10;99.90
57444;DHT22;43289;52.962;6.196;2023-04-07T13:32:27;11.30;99.90
57444;DHT22;43289;52.962;6.196;2023-04-07T13:34:52;11.50;99.90
57444;DHT22;43289;52.962;6.196;2023-04-07T13:37:19;11.60;99.90
57444;DHT22;43289;52.962;6.196;2023-04-07T13:39:44;11.70;99.90
57444;DHT22;43289;52.962;6.196;2023-04-07T13:42:10;11.90;99.90
57444;DHT22;43289;52.962;6.196;2023-04-07T13:44:36;11.90;99.90
57444;DHT22;43289;52.962;6.196;2023-04-07T13:47:03;12.10;99.90
57444;DHT22;43289;52.962;6.196;2023-04-07T13:49:29;12.20;99.90
57444;DHT22;43289;52.962;6.196;2023-04-07T13:51:55;12.40;99.90
57444;DHT22;43289;52.962;6.196;2023-04-07T13:54:20;12.50;99.90
57444;DHT22;43289;52.962;6.196;2023-04-07T13:56:46;12.50;99.90
57444;DHT22;43289;52.962;6.196;2023-04-07T13:59:15;12.60;99.90
57444;DHT22;43289;52.962;6.196;2023-04-07T14:01:41;12.70;99.90
57444;DHT22;43289;52.962;6.196;2023-04-07T14:04:06;12.60;99.90
57444;DHT22;43289;52.962;6.196;2023-04-07T14:06:32;12.50;99.90
57444;DHT22;43289;52.962;6.196;2023-04-07T14:09:00;12.40;99.90
57444;DHT22;43289;52.962;6.196;2023-04-07T14:11:26;12.40;99.90
57444;DHT22;43289;52.962;6.196;2023-04-07T14:13:52;12.40;99.90
57444;DHT22;43289;52.962;6.196;2023-04-07T14:16:17;12.40;99.90
57444;DHT22;43289;52.962;6.196;2023-04-07T14:18:43;12.40;99.90
57444;DHT22;43289;52.962;6.196;2023-04-07T14:21:09;12.50;99.90
57444;DHT22;43289;52.962;6.196;2023-04-07T14:23:35;12.40;99.90
57444;DHT22;43289;52.962;6.196;2023-04-07T14:26:01;12.30;99.90
57444;DHT22;43289;52.962;6.196;2023-04-07T14:28:27;12.30;99.90
57444;DHT22;43289;52.962;6.196;2023-04-07T14:30:53;12.20;99.90
57444;DHT22;43289;52.962;6.196;2023-04-07T14:33:19;12.10;99.90
57444;DHT22;43289;52.962;6.196;2023-04-07T14:35:46;12.10;99.90
57444;DHT22;43289;52.962;6.196;2023-04-07T14:38:12;12.00;99.90
57444;DHT22;43289;52.962;6.196;2023-04-07T14:40:37;12.00;99.90
57444;DHT22;43289;52.962;6.196;2023-04-07T14:43:03;11.90;99.90
57444;DHT22;43289;52.962;6.196;2023-04-07T14:45:31;11.90;99.90
57444;DHT22;43289;52.962;6.196;2023-04-07T14:47:57;11.90;99.90
57444;DHT22;43289;52.962;6.196;2023-04-07T14:50:22;11.90;99.90
57444;DHT22;43289;52.962;6.196;2023-04-07T14:52:49;11.80;99.90
57444;DHT22;43289;52.962;6.196;2023-04-07T14:55:14;11.80;99.90
57444;DHT22;43289;52.962;6.196;2023-04-07T14:57:40;11.70;99.90
57444;DHT22;43289;52.962;6.196;2023-04-07T15:00:06;11.70;99.90
57444;DHT22;43289;52.962;6.196;2023-04-07T15:02:33;11.70;99.90
57444;DHT22;43289;52.962;6.196;2023-04-07T15:04:59;11.80;99.90
57444;DHT22;43289;52.962;6.196;2023-04-07T15:07:24;11.80;99.90
57444;DHT22;43289;52.962;6.196;2023-04-07T15:09:50;11.80;99.90
57444;DHT22;43289;52.962;6.196;2023-04-07T15:12:16;11.90;99.90
57444;DHT22;43289;52.962;6.196;2023-04-07T15:14:43;11.90;99.90
57444;DHT22;43289;52.962;6.196;2023-04-07T15:17:09;11.90;99.90
57444;DHT22;43289;52.962;6.196;2023-04-07T15:19:34;11.90;99.90
57444;DHT22;43289;52.962;6.196;2023-04-07T15:22:00;11.90;99.90
57444;DHT22;43289;52.962;6.196;2023-04-07T15:24:25;12.00;99.90
57444;DHT22;43289;52.962;6.196;2023-04-07T15:26:51;12.00;99.90
57444;DHT22;43289;52.962;6.196;2023-04-07T15:29:16;12.00;99.90
57444;DHT22;43289;52.962;6.196;2023-04-07T15:31:42;12.00;99.90
57444;DHT22;43289;52.962;6.196;2023-04-07T15:34:07;12.00;99.90
57444;DHT22;43289;52.962;6.196;2023-04-07T15:36:33;12.00;99.90
57444;DHT22;43289;52.962;6.196;2023-04-07T15:39:02;12.00;99.90
57444;DHT22;43289;52.962;6.196;2023-04-07T15:41:28;12.10;99.90
57444;DHT22;43289;52.962;6.196;2023-04-07T15:43:54;12.10;99.90
57444;DHT22;43289;52.962;6.196;2023-04-07T15:46:21;12.10;99.90
57444;DHT22;43289;52.962;6.196;2023-04-07T15:48:46;12.10;99.90
57444;DHT22;43289;52.962;6.196;2023-04-07T15:51:12;12.10;99.90
57444;DHT22;43289;52.962;6.196;2023-04-07T15:53:38;12.10;99.90
57444;DHT22;43289;52.962;6.196;2023-04-07T15:56:03;12.20;99.90
57444;DHT22;43289;52.962;6.196;2023-04-07T15:58:30;12.20;99.90
57444;DHT22;43289;52.962;6.196;2023-04-07T16:00:56;12.20;99.90
57444;DHT22;43289;52.962;6.196;2023-04-07T16:03:21;12.20;99.90
57444;DHT22;43289;52.962;6.196;2023-04-07T16:05:47;12.10;99.90
57444;DHT22;43289;52.962;6.196;2023-04-07T16:08:12;12.10;99.90
57444;DHT22;43289;52.962;6.196;2023-04-07T16:10:38;12.10;99.90
57444;DHT22;43289;52.962;6.196;2023-04-07T16:13:04;12.10;99.90
57444;DHT22;43289;52.962;6.196;2023-04-07T16:15:29;12.10;99.90
57444;DHT22;43289;52.962;6.196;2023-04-07T16:17:55;12.20;99.90
57444;DHT22;43289;52.962;6.196;2023-04-07T16:20:20;12.20;99.90
57444;DHT22;43289;52.962;6.196;2023-04-07T16:22:47;12.20;99.90
57444;DHT22;43289;52.962;6.196;2023-04-07T16:25:14;12.30;99.90
57444;DHT22;43289;52.962;6.196;2023-04-07T16:27:40;12.30;99.90
57444;DHT22;43289;52.962;6.196;2023-04-07T16:30:06;12.30;99.90
57444;DHT22;43289;52.962;6.196;2023-04-07T16:32:32;12.40;99.90
57444;DHT22;43289;52.962;6.196;2023-04-07T16:34:58;12.30;99.90
57444;DHT22;43289;52.962;6.196;2023-04-07T16:37:23;12.30;99.90
57444;DHT22;43289;52.962;6.196;2023-04-07T16:39:49;12.20;99.90
57444;DHT22;43289;52.962;6.196;2023-04-07T16:42:14;12.20;99.90
57444;DHT22;43289;52.962;6.196;2023-04-07T16:44:40;12.10;99.90
57444;DHT22;43289;52.962;6.196;2023-04-07T16:47:06;12.10;99.90
57444;DHT22;43289;52.962;6.196;2023-04-07T16:49:31;12.00;99.90
57444;DHT22;43289;52.962;6.196;2023-04-07T16:51:57;12.00;99.90
57444;DHT22;43289;52.962;6.196;2023-04-07T16:54:22;12.00;99.90
57444;DHT22;43289;52.962;6.196;2023-04-07T16:56:48;12.00;99.90
57444;DHT22;43289;52.962;6.196;2023-04-07T16:59:14;12.00;99.90
57444;DHT22;43289;52.962;6.196;2023-04-07T17:01:41;12.10;99.90
57444;DHT22;43289;52.962;6.196;2023-04-07T17:04:06;12.10;99.90
57444;DHT22;43289;52.962;6.196;2023-04-07T17:06:32;12.10;99.90
57444;DHT22;43289;52.962;6.196;2023-04-07T17:08:58;12.00;99.90
57444;DHT22;43289;52.962;6.196;2023-04-07T17:11:23;12.00;99.90
57444;DHT22;43289;52.962;6.196;2023-04-07T17:13:49;11.90;99.90
57444;DHT22;43289;52.962;6.196;2023-04-07T17:16:18;11.80;99.90
57444;DHT22;43289;52.962;6.196;2023-04-07T17:18:44;11.80;99.90
57444;DHT22;43289;52.962;6.196;2023-04-07T17:21:11;11.70;99.90
57444;DHT22;43289;52.962;6.196;2023-04-07T17:23:37;11.70;99.90
57444;DHT22;43289;52.962;6.196;2023-04-07T17:26:03;11.60;99.90
57444;DHT22;43289;52.962;6.196;2023-04-07T17:28:29;11.60;99.90
57444;DHT22;43289;52.962;6.196;2023-04-07T17:30:55;11.60;99.90
57444;DHT22;43289;52.962;6.196;2023-04-07T17:33:21;11.50;99.90
57444;DHT22;43289;52.962;6.196;2023-04-07T17:35:46;11.50;99.90
57444;DHT22;43289;52.962;6.196;2023-04-07T17:38:14;11.40;99.90
57444;DHT22;43289;52.962;6.196;2023-04-07T17:40:40;11.30;99.90
57444;DHT22;43289;52.962;6.196;2023-04-07T17:43:06;11.30;99.90
57444;DHT22;43289;52.962;6.196;2023-04-07T17:45:31;11.20;99.90
57444;DHT22;43289;52.962;6.196;2023-04-07T17:47:58;11.10;99.90
57444;DHT22;43289;52.962;6.196;2023-04-07T17:50:26;11.10;99.90
57444;DHT22;43289;52.962;6.196;2023-04-07T17:52:51;10.90;99.90
57444;DHT22;43289;52.962;6.196;2023-04-07T17:55:17;10.90;99.90
57444;DHT22;43289;52.962;6.196;2023-04-07T17:57:43;10.80;99.90
57444;DHT22;43289;52.962;6.196;2023-04-07T18:00:09;10.70;99.90
57444;DHT22;43289;52.962;6.196;2023-04-07T18:02:35;10.70;99.90
57444;DHT22;43289;52.962;6.196;2023-04-07T18:05:05;10.60;99.90
57444;DHT22;43289;52.962;6.196;2023-04-07T18:07:31;10.50;99.90
57444;DHT22;43289;52.962;6.196;2023-04-07T18:09:56;10.40;99.90
57444;DHT22;43289;52.962;6.196;2023-04-07T18:12:23;10.30;99.90
57444;DHT22;43289;52.962;6.196;2023-04-07T18:14:49;10.30;99.90
57444;DHT22;43289;52.962;6.196;2023-04-07T18:17:14;10.20;99.90
57444;DHT22;43289;52.962;6.196;2023-04-07T18:19:40;10.20;99.90
57444;DHT22;43289;52.962;6.196;2023-04-07T18:22:09;10.10;99.90
57444;DHT22;43289;52.962;6.196;2023-04-07T18:24:35;10.20;99.90
57444;DHT22;43289;52.962;6.196;2023-04-07T18:27:01;10.10;99.90
57444;DHT22;43289;52.962;6.196;2023-04-07T18:29:28;10.00;99.90
57444;DHT22;43289;52.962;6.196;2023-04-07T18:31:55;10.00;99.90
57444;DHT22;43289;52.962;6.196;2023-04-07T22:29:14;9.90;99.90
57444;DHT22;43289;52.962;6.196;2023-04-07T22:31:40;5.70;99.90
57444;DHT22;43289;52.962;6.196;2023-04-07T22:34:05;5.60;99.90
57444;DHT22;43289;52.962;6.196;2023-04-07T22:36:32;5.50;99.90
57444;DHT22;43289;52.962;6.196;2023-04-07T22:38:58;5.50;99.90
57444;DHT22;43289;52.962;6.196;2023-04-07T22:41:24;5.50;99.90
57444;DHT22;43289;52.962;6.196;2023-04-07T22:43:51;5.40;99.90
57444;DHT22;43289;52.962;6.196;2023-04-07T22:46:16;5.40;99.90
57444;DHT22;43289;52.962;6.196;2023-04-07T22:56:00;5.30;99.90
57444;DHT22;43289;52.962;6.196;2023-04-07T22:58:25;5.20;99.90
57444;DHT22;43289;52.962;6.196;2023-04-07T23:00:51;5.10;99.90
57444;DHT22;43289;52.962;6.196;2023-04-07T23:03:16;5.10;99.90
57444;DHT22;43289;52.962;6.196;2023-04-07T23:05:42;5.10;99.90
57444;DHT22;43289;52.962;6.196;2023-04-07T23:08:08;5.00;99.90
57444;DHT22;43289;52.962;6.196;2023-04-07T23:10:33;5.00;99.90
57444;DHT22;43289;52.962;6.196;2023-04-07T23:12:59;5.00;99.90
57444;DHT22;43289;52.962;6.196;2023-04-07T23:15:24;5.00;99.90
57444;DHT22;43289;52.962;6.196;2023-04-07T23:17:51;4.90;99.90
57444;DHT22;43289;52.962;6.196;2023-04-07T23:20:17;4.90;99.90
57444;DHT22;43289;52.962;6.196;2023-04-07T23:22:43;4.80;99.90
57444;DHT22;43289;52.962;6.196;2023-04-07T23:25:08;4.70;99.90
57444;DHT22;43289;52.962;6.196;2023-04-07T23:27:34;4.70;99.90
57444;DHT22;43289;52.962;6.196;2023-04-07T23:30:01;4.70;99.90
57444;DHT22;43289;52.962;6.196;2023-04-07T23:32:27;4.60;99.90
57444;DHT22;43289;52.962;6.196;2023-04-07T23:34:53;4.60;99.90
57444;DHT22;43289;52.962;6.196;2023-04-07T23:37:18;4.60;99.90
57444;DHT22;43289;52.962;6.196;2023-04-07T23:39:44;4.60;99.90
57444;DHT22;43289;52.962;6.196;2023-04-07T23:42:10;4.60;99.90
57444;DHT22;43289;52.962;6.196;2023-04-07T23:44:35;4.50;99.90
57444;DHT22;43289;52.962;6.196;2023-04-07T23:47:01;4.50;99.90
57444;DHT22;43289;52.962;6.196;2023-04-07T23:49:26;4.50;99.90
57444;DHT22;43289;52.962;6.196;2023-04-07T23:51:54;4.50;99.90
57444;DHT22;43289;52.962;6.196;2023-04-07T23:54:20;4.50;99.90
57444;DHT22;43289;52.962;6.196;2023-04-07T23:56:45;4.40;99.90
57444;DHT22;43289;52.962;6.196;2023-04-07T23:59:11;4.40;99.90
